sensor_id;sensor_type;location;lat;lon;timestamp;pressure;altitude;pressure_sealevel;temperature;humidity
24160;BME280;62385;41.594;23.808;2023-08-08T00:00:11;94974.22;;;19.86;58.55
24160;BME280;62385;41.594;23.808;2023-08-08T00:02:39;94973.03;;;19.54;59.49
24160;BME280;62385;41.594;23.808;2023-08-08T00:05:04;94960.97;;;19.56;59.39
24160;BME280;62385;41.594;23.808;2023-08-08T00:07:30;94961.63;;;19.63;59.33
24160;BME280;62385;41.594;23.808;2023-08-08T00:09:56;94974.00;;;19.76;58.87
24160;BME280;62385;41.594;23.808;2023-08-08T00:12:22;94977.66;;;19.70;59.17
24160;BME280;62385;41.594;23.808;2023-08-08T00:14:47;94953.38;;;19.42;59.77
24160;BME280;62385;41.594;23.808;2023-08-08T00:17:13;94967.88;;;19.41;59.93
24160;BME280;62385;41.594;23.808;2023-08-08T00:19:39;94956.28;;;19.52;59.20
24160;BME280;62385;41.594;23.808;2023-08-08T00:22:04;94968.03;;;19.46;59.31
24160;BME280;62385;41.594;23.808;2023-08-08T00:24:30;94959.81;;;19.41;59.42
24160;BME280;62385;41.594;23.808;2023-08-08T00:26:55;94956.19;;;19.35;59.19
24160;BME280;62385;41.594;23.808;2023-08-08T00:29:21;94976.44;;;19.38;59.55
24160;BME280;62385;41.594;23.808;2023-08-08T00:31:47;94964.75;;;19.32;59.33
24160;BME280;62385;41.594;23.808;2023-08-08T00:34:12;94972.84;;;19.20;59.48
24160;BME280;62385;41.594;23.808;2023-08-08T00:36:38;94979.13;;;19.26;59.26
24160;BME280;62385;41.594;23.808;2023-08-08T00:39:03;94983.00;;;19.42;59.27
24160;BME280;62385;41.594;23.808;2023-08-08T00:41:29;94980.84;;;19.55;58.64
24160;BME280;62385;41.594;23.808;2023-08-08T00:43:54;94989.09;;;19.49;58.47
24160;BME280;62385;41.594;23.808;2023-08-08T00:46:21;94977.28;;;19.15;60.03
24160;BME280;62385;41.594;23.808;2023-08-08T00:48:47;94993.75;;;19.42;59.62
24160;BME280;62385;41.594;23.808;2023-08-08T00:51:13;94986.25;;;19.67;58.58
24160;BME280;62385;41.594;23.808;2023-08-08T00:53:39;94994.44;;;19.60;59.19
24160;BME280;62385;41.594;23.808;2023-08-08T00:56:06;94977.38;;;19.31;59.19
24160;BME280;62385;41.594;23.808;2023-08-08T00:58:32;94979.16;;;19.03;61.00
24160;BME280;62385;41.594;23.808;2023-08-08T01:00:57;94986.75;;;19.06;60.03
24160;BME280;62385;41.594;23.808;2023-08-08T01:03:26;94991.22;;;19.00;60.88
24160;BME280;62385;41.594;23.808;2023-08-08T01:06:01;94999.03;;;19.13;60.16
24160;BME280;62385;41.594;23.808;2023-08-08T01:08:35;95002.47;;;19.09;59.88
24160;BME280;62385;41.594;23.808;2023-08-08T01:11:05;95008.44;;;18.87;60.20
24160;BME280;62385;41.594;23.808;2023-08-08T01:13:31;95000.56;;;18.98;60.02
24160;BME280;62385;41.594;23.808;2023-08-08T01:15:59;95003.03;;;19.11;60.99
24160;BME280;62385;41.594;23.808;2023-08-08T01:18:29;95011.91;;;19.23;59.78
24160;BME280;62385;41.594;23.808;2023-08-08T01:20:56;95011.78;;;19.18;60.14
24160;BME280;62385;41.594;23.808;2023-08-08T01:23:34;95018.97;;;19.01;60.27
24160;BME280;62385;41.594;23.808;2023-08-08T01:26:03;95013.22;;;19.20;59.70
24160;BME280;62385;41.594;23.808;2023-08-08T01:28:29;95017.78;;;19.20;59.97
24160;BME280;62385;41.594;23.808;2023-08-08T01:30:55;95002.22;;;19.45;59.38
24160;BME280;62385;41.594;23.808;2023-08-08T01:33:21;95006.78;;;18.98;60.13
24160;BME280;62385;41.594;23.808;2023-08-08T01:35:51;95006.41;;;19.06;60.17
24160;BME280;62385;41.594;23.808;2023-08-08T01:38:32;95021.84;;;19.34;60.11
24160;BME280;62385;41.594;23.808;2023-08-08T01:40:59;95029.56;;;19.30;59.67
24160;BME280;62385;41.594;23.808;2023-08-08T01:43:26;95023.50;;;19.23;60.06
24160;BME280;62385;41.594;23.808;2023-08-08T01:45:52;95020.69;;;19.18;59.81
24160;BME280;62385;41.594;23.808;2023-08-08T01:48:20;95008.03;;;19.42;59.07
24160;BME280;62385;41.594;23.808;2023-08-08T01:50:45;95009.91;;;19.30;59.56
24160;BME280;62385;41.594;23.808;2023-08-08T01:53:11;94994.38;;;18.97;60.43
24160;BME280;62385;41.594;23.808;2023-08-08T01:55:37;94994.75;;;19.01;60.50
24160;BME280;62385;41.594;23.808;2023-08-08T01:58:03;95013.19;;;18.97;60.47
24160;BME280;62385;41.594;23.808;2023-08-08T02:00:28;95005.03;;;19.04;60.32
24160;BME280;62385;41.594;23.808;2023-08-08T02:02:54;94998.59;;;18.93;60.35
24160;BME280;62385;41.594;23.808;2023-08-08T02:05:19;95023.97;;;19.20;59.44
24160;BME280;62385;41.594;23.808;2023-08-08T02:07:45;95007.59;;;18.99;60.12
24160;BME280;62385;41.594;23.808;2023-08-08T02:10:11;95023.53;;;19.00;61.04
24160;BME280;62385;41.594;23.808;2023-08-08T02:12:36;95031.69;;;18.70;61.65
24160;BME280;62385;41.594;23.808;2023-08-08T02:15:02;95026.72;;;18.56;61.99
24160;BME280;62385;41.594;23.808;2023-08-08T02:17:29;95027.63;;;18.50;62.14
24160;BME280;62385;41.594;23.808;2023-08-08T02:19:55;95037.28;;;18.69;61.84
24160;BME280;62385;41.594;23.808;2023-08-08T02:22:22;95035.69;;;18.50;62.39
24160;BME280;62385;41.594;23.808;2023-08-08T02:24:48;95035.09;;;18.48;62.16
24160;BME280;62385;41.594;23.808;2023-08-08T02:27:13;95038.22;;;18.33;62.69
24160;BME280;62385;41.594;23.808;2023-08-08T02:29:39;95033.00;;;18.38;62.19
24160;BME280;62385;41.594;23.808;2023-08-08T02:32:05;95039.44;;;18.49;62.04
24160;BME280;62385;41.594;23.808;2023-08-08T02:34:31;95051.06;;;18.61;61.70
24160;BME280;62385;41.594;23.808;2023-08-08T02:36:56;95037.75;;;18.66;61.03
24160;BME280;62385;41.594;23.808;2023-08-08T02:39:23;95052.22;;;18.65;61.45
24160;BME280;62385;41.594;23.808;2023-08-08T02:41:48;95059.97;;;18.73;60.95
24160;BME280;62385;41.594;23.808;2023-08-08T02:44:15;95035.41;;;18.58;61.00
24160;BME280;62385;41.594;23.808;2023-08-08T02:46:41;95043.25;;;18.71;60.78
24160;BME280;62385;41.594;23.808;2023-08-08T02:49:07;95044.91;;;18.83;60.27
24160;BME280;62385;41.594;23.808;2023-08-08T02:51:32;95060.50;;;19.05;59.85
24160;BME280;62385;41.594;23.808;2023-08-08T02:53:58;95060.13;;;19.13;59.77
24160;BME280;62385;41.594;23.808;2023-08-08T02:56:23;95056.63;;;19.12;59.87
24160;BME280;62385;41.594;23.808;2023-08-08T02:58:51;95053.69;;;19.02;59.99
24160;BME280;62385;41.594;23.808;2023-08-08T03:01:17;95073.34;;;19.14;60.46
24160;BME280;62385;41.594;23.808;2023-08-08T03:03:45;95078.16;;;19.24;59.78
24160;BME280;62385;41.594;23.808;2023-08-08T03:06:12;95082.59;;;19.18;59.79
24160;BME280;62385;41.594;23.808;2023-08-08T03:08:38;95073.00;;;19.11;60.59
24160;BME280;62385;41.594;23.808;2023-08-08T03:11:04;95093.34;;;19.30;61.76
24160;BME280;62385;41.594;23.808;2023-08-08T03:13:30;95099.56;;;19.30;61.18
24160;BME280;62385;41.594;23.808;2023-08-08T03:15:56;95082.22;;;19.38;61.84
24160;BME280;62385;41.594;23.808;2023-08-08T03:18:22;95095.13;;;19.36;62.78
24160;BME280;62385;41.594;23.808;2023-08-08T03:20:48;95100.84;;;19.16;63.68
24160;BME280;62385;41.594;23.808;2023-08-08T03:23:17;95098.72;;;19.18;63.57
24160;BME280;62385;41.594;23.808;2023-08-08T03:25:42;95080.84;;;19.01;63.86
24160;BME280;62385;41.594;23.808;2023-08-08T03:28:08;95092.91;;;19.33;62.53
24160;BME280;62385;41.594;23.808;2023-08-08T03:30:36;95109.97;;;19.15;62.90
24160;BME280;62385;41.594;23.808;2023-08-08T03:33:04;95095.47;;;19.16;62.66
24160;BME280;62385;41.594;23.808;2023-08-08T03:35:30;95109.22;;;18.97;62.82
24160;BME280;62385;41.594;23.808;2023-08-08T03:37:55;95107.63;;;19.07;62.14
24160;BME280;62385;41.594;23.808;2023-08-08T03:40:21;95100.47;;;19.01;62.22
24160;BME280;62385;41.594;23.808;2023-08-08T03:42:46;95107.56;;;19.49;60.56
24160;BME280;62385;41.594;23.808;2023-08-08T03:45:12;95114.09;;;19.53;60.86
24160;BME280;62385;41.594;23.808;2023-08-08T03:47:37;95126.03;;;19.68;60.27
24160;BME280;62385;41.594;23.808;2023-08-08T03:50:03;95133.88;;;19.70;59.82
24160;BME280;62385;41.594;23.808;2023-08-08T03:52:30;95133.06;;;19.69;60.06
24160;BME280;62385;41.594;23.808;2023-08-08T03:54:56;95137.63;;;19.69;60.12
24160;BME280;62385;41.594;23.808;2023-08-08T03:57:22;95148.03;;;19.77;61.41
24160;BME280;62385;41.594;23.808;2023-08-08T03:59:47;95136.78;;;19.80;60.07
24160;BME280;62385;41.594;23.808;2023-08-08T04:02:14;95146.03;;;19.84;59.97
24160;BME280;62385;41.594;23.808;2023-08-08T04:04:40;95130.34;;;19.81;60.06
24160;BME280;62385;41.594;23.808;2023-08-08T04:07:06;95123.81;;;19.65;60.76
24160;BME280;62385;41.594;23.808;2023-08-08T04:09:31;95131.09;;;19.53;61.22
24160;BME280;62385;41.594;23.808;2023-08-08T04:11:57;95138.66;;;19.68;60.34
24160;BME280;62385;41.594;23.808;2023-08-08T04:14:22;95137.50;;;19.87;59.76
24160;BME280;62385;41.594;23.808;2023-08-08T04:16:48;95146.50;;;19.93;59.21
24160;BME280;62385;41.594;23.808;2023-08-08T04:19:13;95138.38;;;20.16;58.75
24160;BME280;62385;41.594;23.808;2023-08-08T04:21:40;95141.63;;;20.41;58.10
24160;BME280;62385;41.594;23.808;2023-08-08T04:24:06;95140.84;;;20.06;60.19
24160;BME280;62385;41.594;23.808;2023-08-08T04:26:33;95157.84;;;20.06;60.31
24160;BME280;62385;41.594;23.808;2023-08-08T04:28:59;95160.88;;;20.33;59.30
24160;BME280;62385;41.594;23.808;2023-08-08T04:31:24;95158.34;;;20.43;59.10
24160;BME280;62385;41.594;23.808;2023-08-08T04:33:51;95156.06;;;20.63;58.36
24160;BME280;62385;41.594;23.808;2023-08-08T04:36:17;95156.81;;;20.47;60.07
24160;BME280;62385;41.594;23.808;2023-08-08T04:38:43;95160.13;;;20.49;61.48
24160;BME280;62385;41.594;23.808;2023-08-08T04:41:08;95163.56;;;20.10;63.42
24160;BME280;62385;41.594;23.808;2023-08-08T04:43:34;95171.81;;;19.92;64.52
24160;BME280;62385;41.594;23.808;2023-08-08T04:45:59;95168.63;;;20.06;64.91
24160;BME280;62385;41.594;23.808;2023-08-08T04:48:25;95181.31;;;20.57;62.58
24160;BME280;62385;41.594;23.808;2023-08-08T04:50:50;95171.03;;;20.71;62.16
24160;BME280;62385;41.594;23.808;2023-08-08T04:53:16;95195.09;;;20.33;63.73
24160;BME280;62385;41.594;23.808;2023-08-08T04:55:41;95192.53;;;20.03;64.66
24160;BME280;62385;41.594;23.808;2023-08-08T04:58:07;95201.91;;;19.77;65.62
24160;BME280;62385;41.594;23.808;2023-08-08T05:00:32;95206.44;;;19.42;66.99
24160;BME280;62385;41.594;23.808;2023-08-08T05:02:59;95223.28;;;18.96;69.09
24160;BME280;62385;41.594;23.808;2023-08-08T05:05:24;95212.88;;;18.99;68.82
24160;BME280;62385;41.594;23.808;2023-08-08T05:07:50;95224.44;;;19.29;67.83
24160;BME280;62385;41.594;23.808;2023-08-08T05:10:16;95218.56;;;19.74;66.60
24160;BME280;62385;41.594;23.808;2023-08-08T05:12:41;95223.94;;;19.74;66.18
24160;BME280;62385;41.594;23.808;2023-08-08T05:15:07;95222.53;;;19.83;65.61
24160;BME280;62385;41.594;23.808;2023-08-08T05:17:33;95214.56;;;20.00;65.26
24160;BME280;62385;41.594;23.808;2023-08-08T05:19:59;95214.41;;;20.18;64.54
24160;BME280;62385;41.594;23.808;2023-08-08T05:22:25;95230.25;;;20.14;64.35
24160;BME280;62385;41.594;23.808;2023-08-08T05:24:50;95241.00;;;19.56;66.85
24160;BME280;62385;41.594;23.808;2023-08-08T05:27:16;95255.59;;;19.37;66.96
24160;BME280;62385;41.594;23.808;2023-08-08T05:29:42;95238.38;;;18.97;68.15
24160;BME280;62385;41.594;23.808;2023-08-08T05:32:07;95245.66;;;19.38;66.58
24160;BME280;62385;41.594;23.808;2023-08-08T05:34:34;95261.84;;;19.19;67.36
24160;BME280;62385;41.594;23.808;2023-08-08T05:36:59;95266.53;;;19.54;66.61
24160;BME280;62385;41.594;23.808;2023-08-08T05:39:25;95266.13;;;20.03;64.48
24160;BME280;62385;41.594;23.808;2023-08-08T05:41:50;95267.03;;;19.97;64.82
24160;BME280;62385;41.594;23.808;2023-08-08T05:44:17;95257.53;;;19.60;65.80
24160;BME280;62385;41.594;23.808;2023-08-08T05:46:42;95257.78;;;19.81;65.51
24160;BME280;62385;41.594;23.808;2023-08-08T05:49:09;95269.25;;;19.89;64.65
24160;BME280;62385;41.594;23.808;2023-08-08T05:51:35;95272.22;;;20.34;63.98
24160;BME280;62385;41.594;23.808;2023-08-08T05:54:00;95281.00;;;20.52;62.98
24160;BME280;62385;41.594;23.808;2023-08-08T05:56:33;95263.63;;;20.48;61.84
24160;BME280;62385;41.594;23.808;2023-08-08T05:59:00;95272.72;;;19.43;65.33
24160;BME280;62385;41.594;23.808;2023-08-08T06:01:25;95283.69;;;19.94;63.60
24160;BME280;62385;41.594;23.808;2023-08-08T06:03:51;95272.56;;;19.79;63.94
24160;BME280;62385;41.594;23.808;2023-08-08T06:06:17;95285.13;;;19.44;64.78
24160;BME280;62385;41.594;23.808;2023-08-08T06:08:42;95288.16;;;19.47;64.44
24160;BME280;62385;41.594;23.808;2023-08-08T06:11:08;95288.66;;;19.56;64.37
24160;BME280;62385;41.594;23.808;2023-08-08T06:13:34;95276.63;;;19.70;63.68
24160;BME280;62385;41.594;23.808;2023-08-08T06:15:59;95294.69;;;20.04;63.29
24160;BME280;62385;41.594;23.808;2023-08-08T06:18:26;95281.00;;;20.52;61.22
24160;BME280;62385;41.594;23.808;2023-08-08T06:20:52;95273.63;;;20.24;61.40
24160;BME280;62385;41.594;23.808;2023-08-08T06:23:17;95282.75;;;20.47;61.45
24160;BME280;62385;41.594;23.808;2023-08-08T06:25:44;95280.88;;;20.24;61.38
24160;BME280;62385;41.594;23.808;2023-08-08T06:28:10;95282.53;;;20.37;61.68
24160;BME280;62385;41.594;23.808;2023-08-08T06:30:36;95283.91;;;20.51;60.73
24160;BME280;62385;41.594;23.808;2023-08-08T06:33:02;95283.47;;;20.54;61.04
24160;BME280;62385;41.594;23.808;2023-08-08T06:35:28;95265.41;;;21.23;58.90
24160;BME280;62385;41.594;23.808;2023-08-08T06:37:54;95281.72;;;21.28;58.78
24160;BME280;62385;41.594;23.808;2023-08-08T06:40:19;95285.94;;;21.52;57.87
24160;BME280;62385;41.594;23.808;2023-08-08T06:42:45;95266.44;;;21.50;58.39
24160;BME280;62385;41.594;23.808;2023-08-08T06:45:11;95291.47;;;21.74;57.30
24160;BME280;62385;41.594;23.808;2023-08-08T06:47:36;95282.22;;;21.86;57.02
24160;BME280;62385;41.594;23.808;2023-08-08T06:50:02;95301.09;;;21.53;58.54
24160;BME280;62385;41.594;23.808;2023-08-08T06:52:28;95298.75;;;21.73;56.99
24160;BME280;62385;41.594;23.808;2023-08-08T06:54:53;95296.66;;;21.47;57.67
24160;BME280;62385;41.594;23.808;2023-08-08T06:57:19;95296.13;;;20.93;59.33
24160;BME280;62385;41.594;23.808;2023-08-08T06:59:45;95307.88;;;20.99;59.33
24160;BME280;62385;41.594;23.808;2023-08-08T07:02:17;95317.00;;;21.38;58.23
24160;BME280;62385;41.594;23.808;2023-08-08T07:04:43;95305.66;;;21.52;57.54
24160;BME280;62385;41.594;23.808;2023-08-08T07:07:08;95303.19;;;22.13;56.29
24160;BME280;62385;41.594;23.808;2023-08-08T07:09:34;95300.88;;;22.21;54.97
24160;BME280;62385;41.594;23.808;2023-08-08T07:12:00;95293.84;;;22.59;54.60
24160;BME280;62385;41.594;23.808;2023-08-08T07:14:25;95287.44;;;22.81;53.88
24160;BME280;62385;41.594;23.808;2023-08-08T07:16:51;95298.44;;;22.96;53.33
24160;BME280;62385;41.594;23.808;2023-08-08T07:19:16;95309.03;;;22.60;53.75
24160;BME280;62385;41.594;23.808;2023-08-08T07:21:42;95303.25;;;23.38;52.33
24160;BME280;62385;41.594;23.808;2023-08-08T07:24:07;95308.09;;;23.84;49.64
24160;BME280;62385;41.594;23.808;2023-08-08T07:26:34;95303.78;;;23.35;47.32
24160;BME280;62385;41.594;23.808;2023-08-08T07:28:59;95300.84;;;24.22;48.27
24160;BME280;62385;41.594;23.808;2023-08-08T07:31:25;95295.22;;;24.07;48.82
24160;BME280;62385;41.594;23.808;2023-08-08T07:33:51;95311.28;;;23.81;51.09
24160;BME280;62385;41.594;23.808;2023-08-08T07:36:17;95295.13;;;23.38;49.04
24160;BME280;62385;41.594;23.808;2023-08-08T07:38:42;95308.97;;;23.41;45.19
24160;BME280;62385;41.594;23.808;2023-08-08T07:41:09;95301.97;;;23.19;42.19
24160;BME280;62385;41.594;23.808;2023-08-08T07:43:35;95301.25;;;23.50;43.53
24160;BME280;62385;41.594;23.808;2023-08-08T07:46:01;95295.59;;;24.15;44.81
24160;BME280;62385;41.594;23.808;2023-08-08T07:48:26;95307.97;;;23.74;48.60
24160;BME280;62385;41.594;23.808;2023-08-08T07:50:52;95309.50;;;23.17;49.13
24160;BME280;62385;41.594;23.808;2023-08-08T07:53:18;95316.72;;;23.33;48.79
24160;BME280;62385;41.594;23.808;2023-08-08T07:55:43;95306.25;;;23.15;48.60
24160;BME280;62385;41.594;23.808;2023-08-08T07:58:09;95311.06;;;22.14;50.22
24160;BME280;62385;41.594;23.808;2023-08-08T08:00:35;95308.81;;;23.05;49.72
24160;BME280;62385;41.594;23.808;2023-08-08T08:03:00;95311.88;;;23.57;48.64
24160;BME280;62385;41.594;23.808;2023-08-08T08:05:27;95300.47;;;22.68;49.74
24160;BME280;62385;41.594;23.808;2023-08-08T08:07:52;95310.81;;;22.71;50.27
24160;BME280;62385;41.594;23.808;2023-08-08T08:10:18;95321.44;;;22.94;48.61
24160;BME280;62385;41.594;23.808;2023-08-08T08:12:44;95301.28;;;23.55;47.41
24160;BME280;62385;41.594;23.808;2023-08-08T08:15:10;95307.41;;;23.45;47.97
24160;BME280;62385;41.594;23.808;2023-08-08T08:17:35;95315.22;;;22.98;48.93
24160;BME280;62385;41.594;23.808;2023-08-08T08:20:02;95304.84;;;23.34;48.69
24160;BME280;62385;41.594;23.808;2023-08-08T08:22:34;95315.22;;;22.98;48.38
24160;BME280;62385;41.594;23.808;2023-08-08T08:25:00;95311.41;;;23.16;46.94
24160;BME280;62385;41.594;23.808;2023-08-08T08:27:25;95312.34;;;23.75;46.16
24160;BME280;62385;41.594;23.808;2023-08-08T08:29:51;95300.47;;;23.33;46.32
24160;BME280;62385;41.594;23.808;2023-08-08T08:32:17;95291.63;;;24.28;44.58
24160;BME280;62385;41.594;23.808;2023-08-08T08:34:42;95295.41;;;24.27;44.99
24160;BME280;62385;41.594;23.808;2023-08-08T08:37:09;95307.66;;;23.98;44.74
24160;BME280;62385;41.594;23.808;2023-08-08T08:39:35;95301.84;;;23.57;45.00
24160;BME280;62385;41.594;23.808;2023-08-08T08:42:02;95303.34;;;24.75;43.51
24160;BME280;62385;41.594;23.808;2023-08-08T08:44:34;95296.09;;;24.44;44.95
24160;BME280;62385;41.594;23.808;2023-08-08T08:47:02;95308.75;;;24.70;45.55
24160;BME280;62385;41.594;23.808;2023-08-08T08:49:30;95289.28;;;24.42;44.15
24160;BME280;62385;41.594;23.808;2023-08-08T08:51:57;95298.44;;;24.30;44.72
24160;BME280;62385;41.594;23.808;2023-08-08T08:54:28;95291.63;;;23.64;44.50
24160;BME280;62385;41.594;23.808;2023-08-08T08:56:55;95295.66;;;23.88;44.53
24160;BME280;62385;41.594;23.808;2023-08-08T08:59:21;95299.19;;;23.94;43.13
24160;BME280;62385;41.594;23.808;2023-08-08T09:01:47;95295.25;;;23.75;43.43
24160;BME280;62385;41.594;23.808;2023-08-08T09:04:14;95300.34;;;24.30;43.16
24160;BME280;62385;41.594;23.808;2023-08-08T09:06:43;95291.63;;;24.28;42.56
24160;BME280;62385;41.594;23.808;2023-08-08T09:09:10;95288.34;;;24.21;42.63
24160;BME280;62385;41.594;23.808;2023-08-08T09:11:35;95292.59;;;23.80;42.91
24160;BME280;62385;41.594;23.808;2023-08-08T09:14:01;95297.88;;;23.97;43.98
24160;BME280;62385;41.594;23.808;2023-08-08T09:16:27;95290.41;;;24.46;42.13
24160;BME280;62385;41.594;23.808;2023-08-08T09:18:54;95281.22;;;24.57;41.82
24160;BME280;62385;41.594;23.808;2023-08-08T09:21:20;95282.53;;;24.91;40.98
24160;BME280;62385;41.594;23.808;2023-08-08T09:23:45;95272.41;;;24.81;41.75
24160;BME280;62385;41.594;23.808;2023-08-08T09:26:13;95275.53;;;25.10;41.94
24160;BME280;62385;41.594;23.808;2023-08-08T09:28:39;95265.50;;;25.16;39.93
24160;BME280;62385;41.594;23.808;2023-08-08T09:31:04;95265.78;;;25.09;40.32
24160;BME280;62385;41.594;23.808;2023-08-08T09:33:30;95257.97;;;25.43;39.21
24160;BME280;62385;41.594;23.808;2023-08-08T09:35:56;95270.16;;;25.31;39.57
24160;BME280;62385;41.594;23.808;2023-08-08T09:38:22;95269.19;;;25.77;38.66
24160;BME280;62385;41.594;23.808;2023-08-08T09:40:47;95262.53;;;25.22;38.89
24160;BME280;62385;41.594;23.808;2023-08-08T09:43:13;95263.13;;;25.40;38.91
24160;BME280;62385;41.594;23.808;2023-08-08T09:45:39;95261.84;;;25.93;38.17
24160;BME280;62385;41.594;23.808;2023-08-08T09:48:07;95259.06;;;25.42;38.01
24160;BME280;62385;41.594;23.808;2023-08-08T09:50:33;95256.41;;;25.62;36.10
24160;BME280;62385;41.594;23.808;2023-08-08T09:53:02;95257.75;;;25.65;37.93
24160;BME280;62385;41.594;23.808;2023-08-08T09:55:28;95256.13;;;25.89;37.33
24160;BME280;62385;41.594;23.808;2023-08-08T09:57:54;95259.72;;;26.25;37.02
24160;BME280;62385;41.594;23.808;2023-08-08T10:00:20;95246.34;;;26.08;36.82
24160;BME280;62385;41.594;23.808;2023-08-08T10:02:47;95258.06;;;25.99;36.96
24160;BME280;62385;41.594;23.808;2023-08-08T10:05:14;95244.19;;;25.95;36.42
24160;BME280;62385;41.594;23.808;2023-08-08T10:07:41;95254.25;;;26.20;36.39
24160;BME280;62385;41.594;23.808;2023-08-08T10:10:08;95245.66;;;26.92;35.80
24160;BME280;62385;41.594;23.808;2023-08-08T10:12:38;95270.81;;;25.73;36.93
24160;BME280;62385;41.594;23.808;2023-08-08T10:15:07;95257.91;;;26.95;36.29
24160;BME280;62385;41.594;23.808;2023-08-08T10:17:37;95245.91;;;26.96;35.75
24160;BME280;62385;41.594;23.808;2023-08-08T10:20:05;95267.84;;;26.40;38.82
24160;BME280;62385;41.594;23.808;2023-08-08T10:22:43;95266.19;;;26.49;38.77
24160;BME280;62385;41.594;23.808;2023-08-08T10:25:17;95281.97;;;25.82;38.52
24160;BME280;62385;41.594;23.808;2023-08-08T10:27:44;95273.00;;;25.86;38.75
24160;BME280;62385;41.594;23.808;2023-08-08T10:30:10;95268.56;;;26.71;39.18
24160;BME280;62385;41.594;23.808;2023-08-08T10:32:42;95276.97;;;25.28;40.87
24160;BME280;62385;41.594;23.808;2023-08-08T10:35:09;95274.19;;;25.18;41.78
24160;BME280;62385;41.594;23.808;2023-08-08T10:37:37;95269.47;;;25.91;41.86
24160;BME280;62385;41.594;23.808;2023-08-08T10:40:04;95282.03;;;25.04;41.36
24160;BME280;62385;41.594;23.808;2023-08-08T10:42:43;95282.84;;;24.53;41.10
24160;BME280;62385;41.594;23.808;2023-08-08T10:45:14;95282.97;;;25.45;39.34
24160;BME280;62385;41.594;23.808;2023-08-08T10:47:40;95285.91;;;25.23;39.04
24160;BME280;62385;41.594;23.808;2023-08-08T10:50:14;95287.22;;;25.11;39.18
24160;BME280;62385;41.594;23.808;2023-08-08T10:55:35;95256.66;;;25.61;37.64
24160;BME280;62385;41.594;23.808;2023-08-08T11:00:32;95255.06;;;25.75;37.60
24160;BME280;62385;41.594;23.808;2023-08-08T11:02:59;95262.13;;;25.66;36.28
24160;BME280;62385;41.594;23.808;2023-08-08T11:05:27;95261.84;;;25.93;37.86
24160;BME280;62385;41.594;23.808;2023-08-08T11:07:54;95252.78;;;25.32;37.72
24160;BME280;62385;41.594;23.808;2023-08-08T11:10:20;95242.81;;;25.67;36.90
24160;BME280;62385;41.594;23.808;2023-08-08T11:13:13;95255.91;;;24.88;38.83
24160;BME280;62385;41.594;23.808;2023-08-08T11:15:39;95239.56;;;25.76;36.97
24160;BME280;62385;41.594;23.808;2023-08-08T11:18:05;95248.81;;;25.95;36.42
24160;BME280;62385;41.594;23.808;2023-08-08T11:20:32;95254.25;;;25.80;35.51
24160;BME280;62385;41.594;23.808;2023-08-08T11:22:58;95246.25;;;26.69;34.99
24160;BME280;62385;41.594;23.808;2023-08-08T11:25:30;95243.22;;;26.76;35.54
24160;BME280;62385;41.594;23.808;2023-08-08T11:27:56;95236.94;;;26.80;34.71
24160;BME280;62385;41.594;23.808;2023-08-08T11:30:24;95242.16;;;26.72;33.61
24160;BME280;62385;41.594;23.808;2023-08-08T11:32:50;95230.59;;;26.21;33.66
24160;BME280;62385;41.594;23.808;2023-08-08T11:35:17;95241.97;;;26.17;32.07
24160;BME280;62385;41.594;23.808;2023-08-08T11:37:45;95221.69;;;26.89;31.54
24160;BME280;62385;41.594;23.808;2023-08-08T11:40:11;95228.41;;;26.23;31.03
24160;BME280;62385;41.594;23.808;2023-08-08T11:42:38;95222.38;;;27.20;30.35
24160;BME280;62385;41.594;23.808;2023-08-08T11:45:05;95235.53;;;27.08;31.71
24160;BME280;62385;41.594;23.808;2023-08-08T11:47:32;95212.22;;;27.31;30.77
24160;BME280;62385;41.594;23.808;2023-08-08T11:50:02;95245.31;;;27.09;30.79
24160;BME280;62385;41.594;23.808;2023-08-08T11:52:28;95225.31;;;26.64;31.67
24160;BME280;62385;41.594;23.808;2023-08-08T11:54:57;95220.22;;;26.28;31.23
24160;BME280;62385;41.594;23.808;2023-08-08T11:57:24;95218.94;;;26.94;31.06
24160;BME280;62385;41.594;23.808;2023-08-08T11:59:52;95216.94;;;27.15;30.61
24160;BME280;62385;41.594;23.808;2023-08-08T12:02:19;95223.50;;;27.09;30.92
24160;BME280;62385;41.594;23.808;2023-08-08T12:04:45;95205.91;;;26.86;31.90
24160;BME280;62385;41.594;23.808;2023-08-08T12:07:11;95215.50;;;27.28;31.23
24160;BME280;62385;41.594;23.808;2023-08-08T12:09:37;95218.03;;;26.30;30.97
24160;BME280;62385;41.594;23.808;2023-08-08T12:12:03;95212.84;;;27.13;31.94
24160;BME280;62385;41.594;23.808;2023-08-08T12:14:30;95203.81;;;27.22;31.10
24160;BME280;62385;41.594;23.808;2023-08-08T12:16:55;95193.00;;;27.56;30.49
24160;BME280;62385;41.594;23.808;2023-08-08T12:19:25;95182.94;;;27.51;31.00
24160;BME280;62385;41.594;23.808;2023-08-08T12:21:51;95182.59;;;27.92;29.93
24160;BME280;62385;41.594;23.808;2023-08-08T12:24:20;95191.38;;;27.01;30.43
24160;BME280;62385;41.594;23.808;2023-08-08T12:26:45;95186.94;;;26.56;30.79
24160;BME280;62385;41.594;23.808;2023-08-08T12:29:11;95194.69;;;27.81;30.00
24160;BME280;62385;41.594;23.808;2023-08-08T12:31:37;95185.00;;;27.98;29.76
24160;BME280;62385;41.594;23.808;2023-08-08T12:34:03;95171.34;;;27.70;29.36
24160;BME280;62385;41.594;23.808;2023-08-08T12:36:30;95184.09;;;27.35;29.89
24160;BME280;62385;41.594;23.808;2023-08-08T12:38:56;95176.25;;;28.30;29.98
24160;BME280;62385;41.594;23.808;2023-08-08T12:41:22;95179.38;;;27.51;29.60
24160;BME280;62385;41.594;23.808;2023-08-08T12:43:48;95177.13;;;27.19;30.73
24160;BME280;62385;41.594;23.808;2023-08-08T12:46:15;95176.59;;;28.48;29.30
24160;BME280;62385;41.594;23.808;2023-08-08T12:48:40;95166.97;;;28.31;29.05
24160;BME280;62385;41.594;23.808;2023-08-08T12:51:06;95171.16;;;28.71;28.54